sensor_id;sensor_type;location;lat;lon;timestamp;P1;durP1;ratioP1;P2;durP2;ratioP2
53757;SDS011;39674;59.860;30.672;2022-07-25T00:05:04;20.02;;;13.20;;
53757;SDS011;39674;59.860;30.672;2022-07-25T00:06:18;22.58;;;13.02;;
53757;SDS011;39674;59.860;30.672;2022-07-25T00:09:23;19.85;;;13.68;;
53757;SDS011;39674;59.860;30.672;2022-07-25T00:12:18;18.70;;;13.38;;
53757;SDS011;39674;59.860;30.672;2022-07-25T00:15:02;22.08;;;14.93;;
53757;SDS011;39674;59.860;30.672;2022-07-25T00:17:45;18.98;;;14.88;;
53757;SDS011;39674;59.860;30.672;2022-07-25T00:20:23;18.30;;;15.60;;
53757;SDS011;39674;59.860;30.672;2022-07-25T00:23:33;18.70;;;13.63;;
53757;SDS011;39674;59.860;30.672;2022-07-25T00:26:27;21.95;;;15.65;;
53757;SDS011;39674;59.860;30.672;2022-07-25T00:30:09;18.38;;;15.15;;
53757;SDS011;39674;59.860;30.672;2022-07-25T00:35:50;21.77;;;15.55;;
53757;SDS011;39674;59.860;30.672;2022-07-25T00:38:59;24.92;;;17.15;;
53757;SDS011;39674;59.860;30.672;2022-07-25T00:42:29;26.30;;;17.48;;
53757;SDS011;39674;59.860;30.672;2022-07-25T00:45:23;26.92;;;18.58;;
53757;SDS011;39674;59.860;30.672;2022-07-25T00:50:05;21.70;;;16.95;;
53757;SDS011;39674;59.860;30.672;2022-07-25T00:51:41;21.70;;;17.42;;
53757;SDS011;39674;59.860;30.672;2022-07-25T00:54:55;23.05;;;17.42;;
53757;SDS011;39674;59.860;30.672;2022-07-25T00:57:46;25.00;;;17.42;;
53757;SDS011;39674;59.860;30.672;2022-07-25T01:03:46;20.33;;;17.45;;
53757;SDS011;39674;59.860;30.672;2022-07-25T01:06:31;26.80;;;17.75;;
53757;SDS011;39674;59.860;30.672;2022-07-25T01:09:10;22.63;;;18.33;;
53757;SDS011;39674;59.860;30.672;2022-07-25T01:12:13;29.38;;;18.30;;
53757;SDS011;39674;59.860;30.672;2022-07-25T01:14:57;20.95;;;16.52;;
53757;SDS011;39674;59.860;30.672;2022-07-25T01:17:50;29.52;;;17.33;;
53757;SDS011;39674;59.860;30.672;2022-07-25T01:20:56;20.38;;;15.57;;
53757;SDS011;39674;59.860;30.672;2022-07-25T01:23:57;18.17;;;15.05;;
53757;SDS011;39674;59.860;30.672;2022-07-25T01:26:55;29.15;;;17.75;;
53757;SDS011;39674;59.860;30.672;2022-07-25T01:29:54;26.75;;;16.67;;
53757;SDS011;39674;59.860;30.672;2022-07-25T01:34:12;20.27;;;15.38;;
53757;SDS011;39674;59.860;30.672;2022-07-25T01:40:56;19.42;;;14.93;;
53757;SDS011;39674;59.860;30.672;2022-07-25T01:43:44;19.05;;;13.88;;
53757;SDS011;39674;59.860;30.672;2022-07-25T01:46:40;22.55;;;16.17;;
53757;SDS011;39674;59.860;30.672;2022-07-25T01:49:25;15.68;;;13.98;;
53757;SDS011;39674;59.860;30.672;2022-07-25T01:52:17;20.23;;;14.57;;
53757;SDS011;39674;59.860;30.672;2022-07-25T01:55:10;22.73;;;16.00;;
53757;SDS011;39674;59.860;30.672;2022-07-25T01:57:42;20.17;;;14.25;;
53757;SDS011;39674;59.860;30.672;2022-07-25T02:00:42;20.58;;;16.00;;
53757;SDS011;39674;59.860;30.672;2022-07-25T02:03:33;24.33;;;16.02;;
53757;SDS011;39674;59.860;30.672;2022-07-25T02:06:23;27.38;;;16.92;;
53757;SDS011;39674;59.860;30.672;2022-07-25T02:19:19;24.83;;;16.77;;
53757;SDS011;39674;59.860;30.672;2022-07-25T02:26:01;22.10;;;17.25;;
53757;SDS011;39674;59.860;30.672;2022-07-25T02:37:22;21.65;;;17.63;;
53757;SDS011;39674;59.860;30.672;2022-07-25T02:44:58;24.20;;;16.80;;
53757;SDS011;39674;59.860;30.672;2022-07-25T02:48:07;25.23;;;17.70;;
53757;SDS011;39674;59.860;30.672;2022-07-25T02:54:32;22.90;;;16.65;;
53757;SDS011;39674;59.860;30.672;2022-07-25T02:58:08;20.08;;;15.82;;
53757;SDS011;39674;59.860;30.672;2022-07-25T03:01:20;23.08;;;16.05;;
53757;SDS011;39674;59.860;30.672;2022-07-25T03:05:25;22.05;;;16.05;;
53757;SDS011;39674;59.860;30.672;2022-07-25T03:11:02;17.23;;;14.82;;
53757;SDS011;39674;59.860;30.672;2022-07-25T03:13:58;22.55;;;15.50;;
53757;SDS011;39674;59.860;30.672;2022-07-25T03:21:32;21.00;;;15.90;;
53757;SDS011;39674;59.860;30.672;2022-07-25T03:24:17;19.77;;;14.95;;
53757;SDS011;39674;59.860;30.672;2022-07-25T03:30:24;20.80;;;15.10;;
53757;SDS011;39674;59.860;30.672;2022-07-25T03:33:46;18.08;;;15.45;;
53757;SDS011;39674;59.860;30.672;2022-07-25T03:37:40;22.42;;;15.88;;
53757;SDS011;39674;59.860;30.672;2022-07-25T03:40:43;19.83;;;15.20;;
53757;SDS011;39674;59.860;30.672;2022-07-25T03:43:31;28.23;;;15.68;;
53757;SDS011;39674;59.860;30.672;2022-07-25T03:46:59;18.88;;;15.77;;
53757;SDS011;39674;59.860;30.672;2022-07-25T03:53:18;19.02;;;14.50;;
53757;SDS011;39674;59.860;30.672;2022-07-25T03:56:40;21.27;;;14.82;;
53757;SDS011;39674;59.860;30.672;2022-07-25T03:59:43;22.17;;;14.30;;
53757;SDS011;39674;59.860;30.672;2022-07-25T04:02:26;22.83;;;15.27;;
53757;SDS011;39674;59.860;30.672;2022-07-25T04:05:50;18.75;;;15.13;;
53757;SDS011;39674;59.860;30.672;2022-07-25T04:09:08;19.20;;;15.48;;
53757;SDS011;39674;59.860;30.672;2022-07-25T04:12:15;16.70;;;13.88;;
53757;SDS011;39674;59.860;30.672;2022-07-25T04:14:54;21.52;;;14.52;;
53757;SDS011;39674;59.860;30.672;2022-07-25T04:21:57;20.60;;;13.55;;
53757;SDS011;39674;59.860;30.672;2022-07-25T04:25:07;20.98;;;13.45;;
53757;SDS011;39674;59.860;30.672;2022-07-25T04:32:04;24.40;;;13.07;;
53757;SDS011;39674;59.860;30.672;2022-07-25T04:36:03;16.85;;;12.07;;
53757;SDS011;39674;59.860;30.672;2022-07-25T04:38:52;16.75;;;11.45;;
53757;SDS011;39674;59.860;30.672;2022-07-25T04:42:07;17.13;;;12.85;;
53757;SDS011;39674;59.860;30.672;2022-07-25T04:45:02;13.95;;;12.40;;
53757;SDS011;39674;59.860;30.672;2022-07-25T04:48:12;19.95;;;10.60;;
53757;SDS011;39674;59.860;30.672;2022-07-25T04:51:29;21.48;;;12.13;;
53757;SDS011;39674;59.860;30.672;2022-07-25T04:54:18;17.23;;;11.75;;
53757;SDS011;39674;59.860;30.672;2022-07-25T04:57:55;14.65;;;11.45;;
53757;SDS011;39674;59.860;30.672;2022-07-25T05:00:38;18.80;;;11.52;;
53757;SDS011;39674;59.860;30.672;2022-07-25T05:03:25;19.23;;;12.55;;
53757;SDS011;39674;59.860;30.672;2022-07-25T05:09:59;23.30;;;13.95;;
53757;SDS011;39674;59.860;30.672;2022-07-25T05:12:54;16.08;;;12.77;;
53757;SDS011;39674;59.860;30.672;2022-07-25T05:15:48;22.35;;;12.23;;
53757;SDS011;39674;59.860;30.672;2022-07-25T05:18:32;15.85;;;11.63;;
53757;SDS011;39674;59.860;30.672;2022-07-25T05:21:17;16.83;;;10.52;;
53757;SDS011;39674;59.860;30.672;2022-07-25T05:30:41;14.20;;;8.93;;
53757;SDS011;39674;59.860;30.672;2022-07-25T05:35:13;14.05;;;10.02;;
53757;SDS011;39674;59.860;30.672;2022-07-25T05:37:18;14.68;;;8.38;;
53757;SDS011;39674;59.860;30.672;2022-07-25T05:40:54;12.23;;;8.98;;
53757;SDS011;39674;59.860;30.672;2022-07-25T05:43:38;13.07;;;8.10;;
53757;SDS011;39674;59.860;30.672;2022-07-25T05:46:41;13.07;;;8.45;;
53757;SDS011;39674;59.860;30.672;2022-07-25T05:49:39;13.90;;;7.22;;
53757;SDS011;39674;59.860;30.672;2022-07-25T05:52:52;9.45;;;6.90;;
53757;SDS011;39674;59.860;30.672;2022-07-25T05:58:22;8.45;;;6.85;;
53757;SDS011;39674;59.860;30.672;2022-07-25T06:01:39;9.90;;;7.55;;
53757;SDS011;39674;59.860;30.672;2022-07-25T06:06:17;8.85;;;6.05;;
53757;SDS011;39674;59.860;30.672;2022-07-25T06:09:46;6.93;;;5.55;;
53757;SDS011;39674;59.860;30.672;2022-07-25T06:12:27;6.30;;;4.68;;
53757;SDS011;39674;59.860;30.672;2022-07-25T06:16:10;5.47;;;4.13;;
53757;SDS011;39674;59.860;30.672;2022-07-25T06:22:35;5.05;;;4.05;;
53757;SDS011;39674;59.860;30.672;2022-07-25T06:25:32;5.15;;;3.67;;
53757;SDS011;39674;59.860;30.672;2022-07-25T06:28:12;8.98;;;4.40;;
53757;SDS011;39674;59.860;30.672;2022-07-25T06:31:29;5.28;;;4.20;;
53757;SDS011;39674;59.860;30.672;2022-07-25T06:34:51;5.85;;;4.43;;
53757;SDS011;39674;59.860;30.672;2022-07-25T06:37:10;6.72;;;4.30;;
53757;SDS011;39674;59.860;30.672;2022-07-25T06:40:43;11.32;;;4.68;;
53757;SDS011;39674;59.860;30.672;2022-07-25T06:43:38;4.78;;;4.00;;
53757;SDS011;39674;59.860;30.672;2022-07-25T06:48:40;4.25;;;3.85;;
53757;SDS011;39674;59.860;30.672;2022-07-25T06:51:21;5.53;;;4.15;;
53757;SDS011;39674;59.860;30.672;2022-07-25T06:55:16;4.13;;;3.75;;
53757;SDS011;39674;59.860;30.672;2022-07-25T07:02:10;8.98;;;3.28;;
53757;SDS011;39674;59.860;30.672;2022-07-25T07:05:11;3.85;;;3.55;;
53757;SDS011;39674;59.860;30.672;2022-07-25T07:08:11;5.38;;;4.03;;
53757;SDS011;39674;59.860;30.672;2022-07-25T07:11:51;10.30;;;4.20;;
53757;SDS011;39674;59.860;30.672;2022-07-25T07:14:51;15.55;;;4.32;;
53757;SDS011;39674;59.860;30.672;2022-07-25T07:18:01;7.10;;;5.22;;
53757;SDS011;39674;59.860;30.672;2022-07-25T07:24:38;8.18;;;4.57;;
53757;SDS011;39674;59.860;30.672;2022-07-25T07:27:34;7.43;;;4.63;;
53757;SDS011;39674;59.860;30.672;2022-07-25T07:43:52;3.72;;;3.38;;
53757;SDS011;39674;59.860;30.672;2022-07-25T07:46:59;6.00;;;3.05;;
53757;SDS011;39674;59.860;30.672;2022-07-25T07:53:43;6.13;;;2.75;;
53757;SDS011;39674;59.860;30.672;2022-07-25T07:57:42;5.65;;;3.45;;
53757;SDS011;39674;59.860;30.672;2022-07-25T08:09:53;4.72;;;2.20;;
53757;SDS011;39674;59.860;30.672;2022-07-25T08:24:44;2.65;;;2.00;;
53757;SDS011;39674;59.860;30.672;2022-07-25T08:46:03;6.30;;;2.47;;
53757;SDS011;39674;59.860;30.672;2022-07-25T08:49:41;3.38;;;2.58;;
53757;SDS011;39674;59.860;30.672;2022-07-25T08:53:09;11.13;;;2.67;;
53757;SDS011;39674;59.860;30.672;2022-07-25T08:56:28;6.60;;;2.53;;
53757;SDS011;39674;59.860;30.672;2022-07-25T08:59:55;5.25;;;2.72;;
53757;SDS011;39674;59.860;30.672;2022-07-25T09:02:55;4.28;;;2.17;;
53757;SDS011;39674;59.860;30.672;2022-07-25T09:06:50;5.63;;;2.40;;
53757;SDS011;39674;59.860;30.672;2022-07-25T09:10:31;5.53;;;2.80;;
53757;SDS011;39674;59.860;30.672;2022-07-25T09:13:54;5.90;;;2.60;;
53757;SDS011;39674;59.860;30.672;2022-07-25T09:17:32;12.05;;;3.10;;
53757;SDS011;39674;59.860;30.672;2022-07-25T09:21:11;5.93;;;2.65;;
53757;SDS011;39674;59.860;30.672;2022-07-25T09:27:39;8.43;;;2.90;;
53757;SDS011;39674;59.860;30.672;2022-07-25T09:46:01;5.97;;;3.88;;
53757;SDS011;39674;59.860;30.672;2022-07-25T09:49:12;7.05;;;4.10;;
53757;SDS011;39674;59.860;30.672;2022-07-25T09:54:02;6.78;;;3.72;;
53757;SDS011;39674;59.860;30.672;2022-07-25T10:07:18;4.38;;;2.50;;
53757;SDS011;39674;59.860;30.672;2022-07-25T10:10:31;4.47;;;2.50;;
53757;SDS011;39674;59.860;30.672;2022-07-25T10:14:07;5.47;;;2.40;;
53757;SDS011;39674;59.860;30.672;2022-07-25T10:31:22;3.92;;;2.28;;
53757;SDS011;39674;59.860;30.672;2022-07-25T10:38:26;6.07;;;3.13;;
53757;SDS011;39674;59.860;30.672;2022-07-25T10:41:39;4.30;;;2.83;;
53757;SDS011;39674;59.860;30.672;2022-07-25T10:52:43;3.88;;;3.30;;
53757;SDS011;39674;59.860;30.672;2022-07-25T11:28:35;4.40;;;3.60;;
53757;SDS011;39674;59.860;30.672;2022-07-25T11:31:58;3.83;;;3.53;;
53757;SDS011;39674;59.860;30.672;2022-07-25T11:35:22;3.45;;;3.15;;
53757;SDS011;39674;59.860;30.672;2022-07-25T11:42:08;4.18;;;3.35;;
53757;SDS011;39674;59.860;30.672;2022-07-25T11:49:46;5.78;;;3.78;;
53757;SDS011;39674;59.860;30.672;2022-07-25T11:53:02;11.85;;;4.20;;
53757;SDS011;39674;59.860;30.672;2022-07-25T11:55:42;7.72;;;3.63;;
53757;SDS011;39674;59.860;30.672;2022-07-25T12:01:41;9.57;;;4.50;;
53757;SDS011;39674;59.860;30.672;2022-07-25T12:04:51;7.40;;;4.43;;
53757;SDS011;39674;59.860;30.672;2022-07-25T12:10:45;9.98;;;4.35;;
53757;SDS011;39674;59.860;30.672;2022-07-25T12:13:37;4.75;;;4.20;;
53757;SDS011;39674;59.860;30.672;2022-07-25T12:50:56;6.13;;;3.75;;
53757;SDS011;39674;59.860;30.672;2022-07-25T12:54:00;4.07;;;3.67;;
53757;SDS011;39674;59.860;30.672;2022-07-25T12:56:45;5.35;;;3.67;;
53757;SDS011;39674;59.860;30.672;2022-07-25T12:59:39;4.70;;;3.38;;
53757;SDS011;39674;59.860;30.672;2022-07-25T13:02:17;3.78;;;3.47;;
53757;SDS011;39674;59.860;30.672;2022-07-25T13:05:04;4.32;;;3.33;;
53757;SDS011;39674;59.860;30.672;2022-07-25T13:07:37;4.78;;;3.60;;
53757;SDS011;39674;59.860;30.672;2022-07-25T13:10:31;4.13;;;3.70;;
53757;SDS011;39674;59.860;30.672;2022-07-25T13:13:11;3.70;;;3.40;;
53757;SDS011;39674;59.860;30.672;2022-07-25T13:16:03;6.07;;;3.40;;
53757;SDS011;39674;59.860;30.672;2022-07-25T13:19:15;3.37;;;2.93;;
53757;SDS011;39674;59.860;30.672;2022-07-25T13:21:57;6.75;;;3.88;;
53757;SDS011;39674;59.860;30.672;2022-07-25T13:25:05;3.45;;;3.15;;
53757;SDS011;39674;59.860;30.672;2022-07-25T13:27:56;4.78;;;2.83;;
53757;SDS011;39674;59.860;30.672;2022-07-25T13:30:51;4.57;;;3.15;;
53757;SDS011;39674;59.860;30.672;2022-07-25T13:33:31;3.45;;;3.15;;
53757;SDS011;39674;59.860;30.672;2022-07-25T13:36:14;3.63;;;3.33;;
53757;SDS011;39674;59.860;30.672;2022-07-25T13:39:00;4.50;;;3.35;;
53757;SDS011;39674;59.860;30.672;2022-07-25T13:41:34;4.85;;;3.20;;
53757;SDS011;39674;59.860;30.672;2022-07-25T13:44:37;3.60;;;3.15;;
53757;SDS011;39674;59.860;30.672;2022-07-25T13:47:24;3.78;;;3.40;;
53757;SDS011;39674;59.860;30.672;2022-07-25T13:50:26;8.60;;;3.50;;
53757;SDS011;39674;59.860;30.672;2022-07-25T13:53:08;4.65;;;3.13;;
53757;SDS011;39674;59.860;30.672;2022-07-25T13:55:54;3.50;;;3.20;;
53757;SDS011;39674;59.860;30.672;2022-07-25T14:01:44;5.55;;;3.55;;
53757;SDS011;39674;59.860;30.672;2022-07-25T14:02:15;4.03;;;3.63;;
53757;SDS011;39674;59.860;30.672;2022-07-25T14:05:20;4.82;;;3.20;;
53757;SDS011;39674;59.860;30.672;2022-07-25T14:07:51;6.57;;;2.90;;
53757;SDS011;39674;59.860;30.672;2022-07-25T14:10:30;3.90;;;3.35;;
53757;SDS011;39674;59.860;30.672;2022-07-25T14:13:43;11.52;;;3.70;;
53757;SDS011;39674;59.860;30.672;2022-07-25T14:16:32;6.60;;;3.58;;
53757;SDS011;39674;59.860;30.672;2022-07-25T14:20:35;5.68;;;3.55;;
53757;SDS011;39674;59.860;30.672;2022-07-25T14:23:35;3.90;;;3.60;;
53757;SDS011;39674;59.860;30.672;2022-07-25T14:27:05;3.77;;;3.33;;
53757;SDS011;39674;59.860;30.672;2022-07-25T14:30:39;4.85;;;3.45;;
53757;SDS011;39674;59.860;30.672;2022-07-25T14:41:29;7.00;;;3.05;;
53757;SDS011;39674;59.860;30.672;2022-07-25T14:44:12;7.28;;;3.38;;
53757;SDS011;39674;59.860;30.672;2022-07-25T14:47:22;5.28;;;3.63;;
53757;SDS011;39674;59.860;30.672;2022-07-25T14:52:00;3.78;;;3.30;;
53757;SDS011;39674;59.860;30.672;2022-07-25T14:53:46;9.25;;;8.38;;
53757;SDS011;39674;59.860;30.672;2022-07-25T14:57:43;10.75;;;5.57;;
53757;SDS011;39674;59.860;30.672;2022-07-25T15:12:18;6.93;;;3.92;;
53757;SDS011;39674;59.860;30.672;2022-07-25T15:15:23;7.18;;;3.33;;
53757;SDS011;39674;59.860;30.672;2022-07-25T15:18:05;8.45;;;3.03;;
53757;SDS011;39674;59.860;30.672;2022-07-25T15:21:00;4.63;;;3.92;;
53757;SDS011;39674;59.860;30.672;2022-07-25T15:23:50;4.40;;;3.45;;
53757;SDS011;39674;59.860;30.672;2022-07-25T15:27:01;4.53;;;3.63;;
53757;SDS011;39674;59.860;30.672;2022-07-25T15:29:47;5.28;;;4.35;;
53757;SDS011;39674;59.860;30.672;2022-07-25T15:32:47;4.30;;;3.53;;
53757;SDS011;39674;59.860;30.672;2022-07-25T15:35:49;5.18;;;3.53;;
53757;SDS011;39674;59.860;30.672;2022-07-25T15:40:18;4.65;;;3.25;;
53757;SDS011;39674;59.860;30.672;2022-07-25T15:42:41;4.47;;;4.07;;
53757;SDS011;39674;59.860;30.672;2022-07-25T15:45:39;5.32;;;4.82;;
53757;SDS011;39674;59.860;30.672;2022-07-25T15:48:47;5.07;;;4.38;;
53757;SDS011;39674;59.860;30.672;2022-07-25T15:52:00;4.15;;;3.53;;
53757;SDS011;39674;59.860;30.672;2022-07-25T15:55:05;6.28;;;4.90;;
53757;SDS011;39674;59.860;30.672;2022-07-25T15:58:13;5.32;;;4.93;;
53757;SDS011;39674;59.860;30.672;2022-07-25T16:04:13;6.53;;;4.45;;
53757;SDS011;39674;59.860;30.672;2022-07-25T16:07:00;4.20;;;3.50;;
53757;SDS011;39674;59.860;30.672;2022-07-25T16:10:17;4.63;;;4.05;;
53757;SDS011;39674;59.860;30.672;2022-07-25T16:13:03;5.00;;;3.80;;
53757;SDS011;39674;59.860;30.672;2022-07-25T16:15:58;7.38;;;4.00;;
53757;SDS011;39674;59.860;30.672;2022-07-25T16:19:35;4.43;;;3.63;;
53757;SDS011;39674;59.860;30.672;2022-07-25T16:22:57;5.25;;;4.03;;
53757;SDS011;39674;59.860;30.672;2022-07-25T16:26:50;4.75;;;3.75;;
53757;SDS011;39674;59.860;30.672;2022-07-25T16:30:03;4.18;;;3.63;;
53757;SDS011;39674;59.860;30.672;2022-07-25T16:33:42;4.57;;;3.55;;
53757;SDS011;39674;59.860;30.672;2022-07-25T16:37:12;4.78;;;3.67;;
53757;SDS011;39674;59.860;30.672;2022-07-25T16:40:44;5.70;;;3.92;;
53757;SDS011;39674;59.860;30.672;2022-07-25T16:43:40;6.47;;;3.92;;
53757;SDS011;39674;59.860;30.672;2022-07-25T16:46:31;4.78;;;4.28;;
53757;SDS011;39674;59.860;30.672;2022-07-25T16:49:21;7.05;;;4.68;;
53757;SDS011;39674;59.860;30.672;2022-07-25T16:52:10;5.90;;;4.32;;
53757;SDS011;39674;59.860;30.672;2022-07-25T16:55:25;6.00;;;4.05;;
53757;SDS011;39674;59.860;30.672;2022-07-25T16:58:35;7.75;;;4.93;;
53757;SDS011;39674;59.860;30.672;2022-07-25T17:01:21;6.95;;;4.90;;
53757;SDS011;39674;59.860;30.672;2022-07-25T17:03:52;8.88;;;4.45;;
53757;SDS011;39674;59.860;30.672;2022-07-25T17:06:24;7.75;;;4.43;;
53757;SDS011;39674;59.860;30.672;2022-07-25T17:08:55;7.10;;;4.43;;
53757;SDS011;39674;59.860;30.672;2022-07-25T17:14:41;7.72;;;5.40;;
53757;SDS011;39674;59.860;30.672;2022-07-25T17:17:45;8.10;;;5.75;;
53757;SDS011;39674;59.860;30.672;2022-07-25T17:20:24;7.95;;;4.50;;
53757;SDS011;39674;59.860;30.672;2022-07-25T17:22:57;6.68;;;5.10;;
53757;SDS011;39674;59.860;30.672;2022-07-25T17:25:40;7.75;;;4.47;;
53757;SDS011;39674;59.860;30.672;2022-07-25T17:28:47;9.45;;;4.35;;
53757;SDS011;39674;59.860;30.672;2022-07-25T17:31:26;8.57;;;4.72;;
53757;SDS011;39674;59.860;30.672;2022-07-25T17:34:06;12.95;;;4.20;;
53757;SDS011;39674;59.860;30.672;2022-07-25T17:36:44;17.63;;;4.20;;
53757;SDS011;39674;59.860;30.672;2022-07-25T17:39:32;6.72;;;3.85;;
53757;SDS011;39674;59.860;30.672;2022-07-25T17:45:16;6.63;;;3.88;;
53757;SDS011;39674;59.860;30.672;2022-07-25T17:48:22;8.95;;;3.40;;
53757;SDS011;39674;59.860;30.672;2022-07-25T17:51:19;6.78;;;3.65;;
53757;SDS011;39674;59.860;30.672;2022-07-25T17:53:59;8.63;;;3.50;;
53757;SDS011;39674;59.860;30.672;2022-07-25T17:56:47;4.40;;;3.00;;
53757;SDS011;39674;59.860;30.672;2022-07-25T18:07:47;7.95;;;4.80;;
53757;SDS011;39674;59.860;30.672;2022-07-25T18:10:21;8.65;;;4.10;;
53757;SDS011;39674;59.860;30.672;2022-07-25T18:12:51;14.38;;;4.80;;
53757;SDS011;39674;59.860;30.672;2022-07-25T18:15:26;9.05;;;3.88;;
53757;SDS011;39674;59.860;30.672;2022-07-25T18:19:00;7.37;;;3.87;;
53757;SDS011;39674;59.860;30.672;2022-07-25T18:30:00;9.82;;;4.35;;
53757;SDS011;39674;59.860;30.672;2022-07-25T18:33:19;7.70;;;4.25;;
53757;SDS011;39674;59.860;30.672;2022-07-25T18:35:41;6.38;;;3.53;;
53757;SDS011;39674;59.860;30.672;2022-07-25T18:38:26;8.98;;;3.58;;
53757;SDS011;39674;59.860;30.672;2022-07-25T18:41:02;6.03;;;3.55;;
53757;SDS011;39674;59.860;30.672;2022-07-25T18:43:55;6.68;;;3.78;;
53757;SDS011;39674;59.860;30.672;2022-07-25T18:51:36;6.50;;;4.53;;
53757;SDS011;39674;59.860;30.672;2022-07-25T19:17:00;9.20;;;4.60;;
53757;SDS011;39674;59.860;30.672;2022-07-25T19:21:06;9.75;;;4.47;;
53757;SDS011;39674;59.860;30.672;2022-07-25T19:31:49;6.50;;;4.40;;
53757;SDS011;39674;59.860;30.672;2022-07-25T21:02:17;4.35;;;3.55;;
53757;SDS011;39674;59.860;30.672;2022-07-25T21:13:28;8.38;;;2.95;;
53757;SDS011;39674;59.860;30.672;2022-07-25T21:17:06;6.35;;;3.28;;
53757;SDS011;39674;59.860;30.672;2022-07-25T22:57:28;4.90;;;3.28;;
53757;SDS011;39674;59.860;30.672;2022-07-25T23:01:03;5.90;;;3.53;;
53757;SDS011;39674;59.860;30.672;2022-07-25T23:04:37;15.68;;;3.67;;
53757;SDS011;39674;59.860;30.672;2022-07-25T23:07:30;17.15;;;3.78;;
53757;SDS011;39674;59.860;30.672;2022-07-25T23:11:21;11.80;;;4.70;;
53757;SDS011;39674;59.860;30.672;2022-07-25T23:14:42;10.13;;;3.70;;
53757;SDS011;39674;59.860;30.672;2022-07-25T23:18:19;11.05;;;4.43;;
53757;SDS011;39674;59.860;30.672;2022-07-25T23:21:37;12.10;;;4.00;;
53757;SDS011;39674;59.860;30.672;2022-07-25T23:25:11;6.60;;;3.10;;
53757;SDS011;39674;59.860;30.672;2022-07-25T23:29:08;5.60;;;3.60;;
53757;SDS011;39674;59.860;30.672;2022-07-25T23:32:51;8.18;;;3.55;;
53757;SDS011;39674;59.860;30.672;2022-07-25T23:36:13;5.05;;;3.80;;
53757;SDS011;39674;59.860;30.672;2022-07-25T23:46:50;11.48;;;3.65;;
53757;SDS011;39674;59.860;30.672;2022-07-25T23:50:29;8.00;;;3.72;;
53757;SDS011;39674;59.860;30.672;2022-07-25T23:54:16;6.03;;;3.63;;
53757;SDS011;39674;59.860;30.672;2022-07-25T23:57:57;5.05;;;2.88;;
